• Join FlightAware (Why Join?)
  • Login
  • US Flag 
05:10PM EDT


 

Airport Tracker/Info


-or-


 

Live Flight TrackerFlight Track Log ✈ UAL256 ✈ 21-Apr-2013 ✈ KDEN - KORD

Flight Track Log - Related Links

Times and Time Zones

All times are in EDT time to prevent confusion due to time zone crossing. See the UAL256 flight status page for this flight to view local times or setup timezone preferences in your user account.

Time Position Orientation Groundspeed Altitude Reporting Facility
EDT Latitude Longitude Course Direction KTS MPH feet Rate Location/Type
08:45PM 39.8833 -104.5667 83° East 186 214 7,700  Level Denver TRACON
08:46PM 39.8833 -104.4833 90° East 255 293 9,100 2,160 Climbing Denver TRACON
08:47PM 39.8833 -104.3833 90° East 312 359 11,900 2,580 Climbing Denver TRACON
08:48PM 39.9571 -104.0788 66° East  Level FlightAware Approximate
08:48PM 39.8750 -104.3197 100° East 323 372 12,800  Level Denver Center
08:49PM 39.9836 -103.9315 79° East  Level FlightAware Approximate
08:49PM 39.8981 -104.1886 77° East 386 444 14,600  Level Denver Center
08:50PM 40.0078 -103.7845 57° Northeast  Level FlightAware Approximate
08:50PM 39.9394 -104.0433 70° East 404 465 17,200  Level Denver Center
08:51PM 40.0297 -103.6370 83° East  Level FlightAware Approximate
08:51PM 39.9817 -103.8986 69° East 430 495 19,100  Level Denver Center
08:52PM 40.0269 -103.7386 70° East 439 505 21,100 1,560 Climbing Denver Center
08:53PM 40.0536 -103.5764 78° East 457 526 22,400 1,380 Climbing Denver Center
08:54PM 40.0817 -103.4033 78° East 478 550 24,000 1,500 Climbing Denver Center
08:55PM 40.1092 -103.2267 78° East 490 564 25,600 1,380 Climbing Denver Center
08:56PM 40.1381 -103.0497 78° East 494 568 26,900 1,680 Climbing Denver Center
08:57PM 40.1661 -102.8731 78° East 493 567 29,100 2,100 Climbing Denver Center
08:58PM 40.1931 -102.6997 78° East 484 557 31,300 1,800 Climbing Denver Center
08:59PM 40.2231 -102.4967 79° East 486 559 32,900 1,140 Climbing Denver Center
09:00PM 40.2494 -102.3292 78° East 494 568 33,700 960 Climbing Denver Center
09:01PM 40.2753 -102.1553 79° East 507 583 35,000 1,140 Climbing Denver Center
09:02PM 40.3061 -101.9533 79° East 509 586 36,100 720 Climbing Denver Center
09:03PM 40.3333 -101.7792 78° East 511 588 36,600 600 Climbing Denver Center
09:04PM 40.3633 -101.5719 79° East 519 597 37,400 840 Climbing Denver Center
09:05PM 40.3886 -101.3919 79° East 524 603 38,400 720 Climbing Denver Center
09:06PM 40.4172 -101.1847 80° East 521 600 38,900 240 Climbing Denver Center
09:07PM 40.4425 -101.0069 79° East 521 600 39,000  Climbing Denver Center
09:08PM 40.4950 -100.8131 70° East 510 587 39,000 -60 Level Denver Center
09:09PM 40.5525 -100.6589 64° Northeast 499 574 38,900  Descending Denver Center
09:10PM 40.6197 -100.4772 64° Northeast 501 577 39,000  Climbing Denver Center
09:11PM 40.6778 -100.3211 64° Northeast 501 577 39,000  Level Denver Center
09:12PM 40.7447 -100.1375 64° Northeast 500 575 39,000  Level Denver Center
09:13PM 40.8019 -99.9811 64° Northeast 498 573 39,000  Level Denver Center
09:15PM 40.8708 -99.7906 64° Northeast 501 577 39,000  Level Denver Center
09:16PM 40.9317 -99.6244 64° Northeast 502 578 39,000  Level Denver Center
09:17PM 40.9911 -99.4564 65° Northeast 503 579 39,000  Level Denver Center
09:18PM 41.0494 -99.2906 65° Northeast 499 574 39,000  Level Denver Center
09:19PM 41.1083 -99.1250 65° Northeast 496 571 39,000  Level Denver Center
09:20PM 41.1567 -98.9417 71° East 497 572 39,000 -60 Level Denver Center
09:21PM 41.1878 -98.7794 76° East 499 574 38,900  Descending Minneapolis Center
09:22PM 41.2214 -98.5981 76° East 504 580 39,000  Climbing Minneapolis Center
09:23PM 41.2600 -98.3906 76° East 509 586 39,000  Level Minneapolis Center
09:24PM 41.2936 -98.2078 76° East 508 585 39,000  Level Minneapolis Center
09:25PM 41.3289 -98.0136 76° East 508 585 39,000  Level Minneapolis Center
09:26PM 41.3683 -97.7953 76° East 506 582 39,000 -60 Level Minneapolis Center
09:27PM 41.4006 -97.6131 77° East 506 582 38,900  Descending Minneapolis Center
09:28PM 41.4322 -97.4306 77° East 506 582 39,000  Climbing Minneapolis Center
09:29PM 41.4647 -97.2489 77° East 504 580 38,900  Descending Minneapolis Center
09:30PM 41.4964 -97.0653 77° East 507 583 39,000  Climbing Minneapolis Center
09:31PM 41.5281 -96.8814 77° East 508 585 39,000  Level Minneapolis Center
09:32PM 41.5592 -96.6992 77° East 503 579 39,000  Level Minneapolis Center
09:33PM 41.5906 -96.5136 77° East 508 585 39,000  Level Minneapolis Center
09:34PM 41.6256 -96.3011 78° East 517 595 39,000  Level Minneapolis Center
09:35PM 41.6525 -96.1342 78° East 514 592 39,000 -60 Level Minneapolis Center
09:36PM 41.6897 -95.9081 77° East 513 590 38,900 -60 Descending Minneapolis Center
09:37PM 41.7206 -95.7197 78° East 514 592 38,900  Level Minneapolis Center
09:38PM 41.7494 -95.5303 78° East 517 595 39,000  Climbing Minneapolis Center
09:39PM 41.7789 -95.3431 78° East 514 592 39,000  Level Minneapolis Center
09:40PM 41.8078 -95.1564 78° East 510 587 39,000 -60 Level Minneapolis Center
09:41PM 41.8364 -94.9717 78° East 507 583 38,900 -60 Descending Minneapolis Center
09:42PM 41.8622 -94.7853 79° East 508 585 38,900  Level Minneapolis Center
09:43PM 41.8922 -94.6011 78° East 505 581 39,000  Climbing Minneapolis Center
09:44PM 41.9183 -94.4175 79° East 502 578 39,000  Level Minneapolis Center
09:45PM 41.9456 -94.2311 79° East 507 583 39,000 -60 Level Minneapolis Center
09:46PM 41.9736 -94.0494 78° East 500 575 38,900  Descending Minneapolis Center
09:47PM 42.0028 -93.8472 79° East 503 579 39,000  Climbing Minneapolis Center
09:48PM 42.0289 -93.6628 79° East 506 582 39,000  Level Minneapolis Center
09:49PM 42.0539 -93.4814 79° East 501 577 39,000 -60 Level Minneapolis Center
09:50PM 42.0781 -93.2997 80° East 498 573 38,900 -60 Descending Minneapolis Center
09:51PM 42.1028 -93.1172 80° East 499 574 38,900  Level Minneapolis Center
09:53PM 42.1322 -92.8964 80° East 503 579 39,000  Climbing Minneapolis Center
09:54PM 42.1572 -92.7136 79° East 503 579 39,000 -300 Level Minneapolis Center
09:55PM 42.1800 -92.5303 80° East 502 578 38,500 -780 Descending Minneapolis Center
09:56PM 42.2047 -92.3450 80° East 506 582 37,500 -1,020 Descending Minneapolis Center
09:57PM 42.2281 -92.1633 80° East 501 577 36,500 -900 Descending Minneapolis Center
09:57PM 42.2367 -92.0883 81° East 499 574 36,200 -1,020 Descending Chicago Center
09:59PM 42.2769 -91.7700 80° East 489 563 34,400 -1,080 Descending Minneapolis Center
09:59PM 42.2861 -91.6961 80° East 489 563 34,100 -900 Descending Chicago Center
10:00PM 42.3075 -91.5194 81° East 487 560 33,100 -600 Descending Chicago Center
10:01PM 42.3281 -91.3436 81° East 483 556 33,000 -120 Descending Chicago Center
10:02PM 42.3497 -91.1653 81° East 492 566 32,900 -540 Descending Chicago Center
10:03PM 42.3692 -90.9872 82° East 488 562 31,900 -1,320 Descending Chicago Center
10:04PM 42.3942 -90.7764 81° East 481 554 30,200 -1,620 Descending Chicago Center
10:05PM 42.4131 -90.5986 82° East 482 555 28,700 -1,560 Descending Chicago Center
10:06PM 42.4308 -90.4186 82° East 487 560 27,100 -1,620 Descending Chicago Center
10:07PM 42.4428 -90.2356 85° East 492 566 25,500 -1,620 Descending Chicago Center
10:08PM 42.4364 -90.0578 93° East 481 554 23,900 -1,260 Descending Chicago Center
10:09PM 42.4300 -89.8769 93° East 468 539 23,000 -480 Descending Chicago Center
10:10PM 42.4242 -89.7033 93° East 463 533 23,000 -540 Level Chicago Center
10:11PM 42.4164 -89.5008 93° East 464 534 21,900 -1,740 Descending Chicago Center
10:12PM 42.4097 -89.3322 93° East 451 519 19,500 -2,160 Descending Chicago Center
10:13PM 42.4039 -89.1672 93° East 443 510 17,500 -2,220 Descending Chicago Center
10:14PM 42.3969 -89.0103 93° East 423 487 15,000 -2,340 Descending Chicago Center
10:15PM 42.3911 -88.8608 93° East 404 465 12,800 -1,740 Descending Chicago Center
10:16PM 42.3853 -88.7281 93° East 359 413 11,500 -1,380 Descending Chicago Center
10:17PM 42.3794 -88.6086 94° East 326 375 10,000 -1,260 Descending Chicago Center
10:18PM 42.3747 -88.4975 93° East 304 350 9,000 -900 Descending Chicago Center
10:20PM 42.3386 -88.3803 113° Southeast 289 333 8,200 -960 Descending Chicago Center
10:21PM 42.3086 -88.2969 116° Southeast 282 325 7,100 -600 Descending Chicago Center
10:22PM 42.2506 -88.2300 140° Southeast 274 315 7,000 -540 Descending Chicago Center
10:23PM 42.1939 -88.1636 139° Southeast 271 312 6,000 -1,140 Descending Chicago Center
10:24PM 42.1386 -88.1017 140° Southeast 264 304 4,700 -1,440 Descending Chicago Center
10:25PM 42.0825 -88.0353 139° Southeast 235 270 3,100 -1,200 Descending Chicago Center
10:26PM 42.0492 -88.0003 142° Southeast 191 220 2,300 -840 Descending Chicago Center